C6564 KVQQ-KVQQ

Flight info

Callsign C6564
Flight time 0h 1m
Altitude 5000
Route VFR
Aircraft AS65/L-V/N

Departure

Time 2026-04-11 18:12
Airport Cecil Airport (KVQQ)

Arrival

Time 2026-04-11 18:13
Airport Cecil Airport (KVQQ)
Time Latitude Longitude Altitude Speed Heading
2026-04-11 16:56 30.22084 -81.88820 84 ft 0 kts 113°
2026-04-11 16:59 30.22082 -81.88813 87 ft 0 kts 109°
2026-04-11 16:59 30.22054 -81.88711 286 ft 50 kts 108°
2026-04-11 16:59 30.21839 -81.88017 143 ft 131 kts 107°
2026-04-11 17:00 30.21770 -81.86903 557 ft 128 kts 87°
2026-04-11 17:00 30.21794 -81.85988 490 ft 109 kts 89°
2026-04-11 17:00 30.21805 -81.85075 469 ft 114 kts 94°
2026-04-11 17:00 30.21414 -81.84248 476 ft 125 kts 131°
2026-04-11 17:01 30.20729 -81.83652 476 ft 121 kts 141°
2026-04-11 17:01 30.20025 -81.83117 463 ft 127 kts 142°
2026-04-11 17:01 30.19221 -81.82492 450 ft 150 kts 140°
2026-04-11 17:01 30.18235 -81.82198 463 ft 158 kts 189°
2026-04-11 17:02 30.17593 -81.83202 396 ft 178 kts 272°
2026-04-11 17:02 30.18331 -81.84175 388 ft 169 kts 354°
2026-04-11 17:02 30.19517 -81.84149 322 ft 169 kts
2026-04-11 17:02 30.20637 -81.84024 411 ft 159 kts 12°
2026-04-11 17:03 30.21762 -81.83969 403 ft 167 kts 352°
2026-04-11 17:03 30.22128 -81.84855 313 ft 132 kts 270°
2026-04-11 17:03 30.21961 -81.85876 413 ft 132 kts 259°
2026-04-11 17:03 30.21793 -81.87032 431 ft 159 kts 272°
2026-04-11 17:04 30.21853 -81.87892 474 ft 157 kts 284°
2026-04-11 17:04 30.22088 -81.88997 489 ft 129 kts 297°
2026-04-11 17:04 30.21975 -81.89607 225 ft 55 kts 121°
2026-04-11 17:04 30.21999 -81.89284 149 ft 44 kts 76°
2026-04-11 17:05 30.22000 -81.89170 83 ft 5 kts 82°
2026-04-11 17:05 30.22000 -81.89177 82 ft 0 kts 84°
2026-04-11 17:05 30.21999 -81.89168 82 ft 7 kts 88°
2026-04-11 17:05 30.21965 -81.88901 106 ft 68 kts 92°
2026-04-11 17:06 30.21972 -81.88158 257 ft 109 kts 86°
2026-04-11 17:06 30.21961 -81.87169 245 ft 136 kts 95°
2026-04-11 17:06 30.21545 -81.86104 245 ft 155 kts 124°
2026-04-11 17:06 30.20906 -81.85054 246 ft 164 kts 123°
2026-04-11 17:07 30.20243 -81.83990 248 ft 165 kts 124°
2026-04-11 17:07 30.19570 -81.82921 255 ft 164 kts 124°
2026-04-11 17:07 30.18902 -81.81851 251 ft 163 kts 123°
2026-04-11 17:07 30.18231 -81.80796 245 ft 162 kts 124°
2026-04-11 17:08 30.17561 -81.79733 255 ft 163 kts 124°
2026-04-11 17:08 30.16899 -81.78664 248 ft 164 kts 123°
2026-04-11 17:08 30.16241 -81.77594 255 ft 162 kts 124°
2026-04-11 17:08 30.15582 -81.76519 246 ft 167 kts 122°
2026-04-11 17:09 30.14886 -81.75433 249 ft 170 kts 124°
2026-04-11 17:09 30.14190 -81.74321 255 ft 170 kts 124°
2026-04-11 17:09 30.13437 -81.73380 314 ft 140 kts 158°
2026-04-11 17:09 30.12617 -81.73609 255 ft 127 kts 226°
2026-04-11 17:10 30.12252 -81.74531 251 ft 130 kts 251°
2026-04-11 17:13 30.08657 -81.67134 427 ft 93 kts 185°
2026-04-11 17:13 30.08071 -81.67289 413 ft 80 kts 203°
2026-04-11 17:13 30.07597 -81.67631 419 ft 83 kts 217°
2026-04-11 17:14 30.07574 -81.68149 404 ft 75 kts 339°
2026-04-11 17:14 30.08042 -81.68298 428 ft 65 kts 354°
2026-04-11 17:14 30.08457 -81.68452 418 ft 63 kts 351°
2026-04-11 17:14 30.08964 -81.68617 410 ft 84 kts 358°
2026-04-11 17:15 30.11386 -81.68417 365 ft 89 kts 48°
2026-04-11 17:16 30.11544 -81.67743 350 ft 93 kts 92°
2026-04-11 17:16 30.11169 -81.67136 345 ft 103 kts 138°
2026-04-11 17:16 30.10462 -81.66985 358 ft 106 kts 182°
2026-04-11 17:16 30.09711 -81.67037 347 ft 110 kts 179°
2026-04-11 17:17 30.08966 -81.67087 362 ft 99 kts 181°
2026-04-11 17:17 30.08269 -81.67097 350 ft 105 kts 181°
2026-04-11 17:17 30.07555 -81.66996 348 ft 104 kts 155°
2026-04-11 17:17 30.06833 -81.66911 342 ft 109 kts 186°
2026-04-11 17:18 30.06077 -81.67092 351 ft 111 kts 192°
2026-04-11 17:18 30.05357 -81.67242 354 ft 101 kts 182°
2026-04-11 17:18 30.04634 -81.67272 343 ft 105 kts 181°
2026-04-11 17:18 30.03926 -81.67271 348 ft 103 kts 180°
2026-04-11 17:19 30.03228 -81.67071 356 ft 100 kts 158°
2026-04-11 17:19 30.02589 -81.66756 339 ft 101 kts 155°
2026-04-11 17:19 30.01940 -81.66447 355 ft 99 kts 154°
2026-04-11 17:19 30.01282 -81.66175 339 ft 104 kts 157°
2026-04-11 17:20 30.00556 -81.66198 351 ft 107 kts 198°
2026-04-11 17:20 29.99850 -81.66348 337 ft 104 kts 168°
2026-04-11 17:20 29.99250 -81.65983 342 ft 96 kts 133°
2026-04-11 17:20 29.99007 -81.65287 340 ft 95 kts 94°
2026-04-11 17:21 29.99195 -81.64606 350 ft 85 kts 53°
2026-04-11 17:21 29.99699 -81.64232 288 ft 92 kts 22°
2026-04-11 17:21 30.00315 -81.64221 228 ft 88 kts 359°
2026-04-11 17:21 30.00915 -81.64405 205 ft 94 kts 347°
2026-04-11 17:22 30.01493 -81.64771 197 ft 95 kts 331°
2026-04-11 17:22 30.01938 -81.65353 188 ft 101 kts 306°
2026-04-11 17:22 30.02129 -81.66132 186 ft 103 kts 277°
2026-04-11 17:22 30.01958 -81.66941 186 ft 108 kts 245°
2026-04-11 17:23 30.01438 -81.67547 185 ft 107 kts 210°
2026-04-11 17:23 30.00744 -81.67752 184 ft 104 kts 178°
2026-04-11 17:23 30.00065 -81.67536 183 ft 100 kts 146°
2026-04-11 17:23 29.99582 -81.66995 185 ft 96 kts 121°
2026-04-11 17:24 29.99376 -81.66280 181 ft 94 kts 95°
2026-04-11 17:24 29.99471 -81.65562 185 ft 86 kts 67°
2026-04-11 17:24 29.99813 -81.64989 178 ft 89 kts 45°
2026-04-11 17:24 30.00326 -81.64642 179 ft 87 kts 22°
2026-04-11 17:25 30.00939 -81.64577 184 ft 92 kts
2026-04-11 17:25 30.01541 -81.64841 184 ft 96 kts 334°
2026-04-11 17:25 30.01990 -81.65422 186 ft 100 kts 304°
2026-04-11 17:25 30.02163 -81.66210 185 ft 102 kts 285°
2026-04-11 17:26 30.02248 -81.67039 181 ft 110 kts 274°
2026-04-11 17:26 30.01965 -81.67862 188 ft 112 kts 234°
2026-04-11 17:26 30.01342 -81.68319 182 ft 106 kts 194°
2026-04-11 17:26 30.00638 -81.68240 182 ft 102 kts 151°
2026-04-11 17:27 30.00165 -81.67697 182 ft 96 kts 115°
2026-04-11 17:27 30.00105 -81.66970 188 ft 87 kts 74°
2026-04-11 17:27 30.00391 -81.66369 183 ft 87 kts 50°
2026-04-11 17:27 30.00808 -81.65980 189 ft 68 kts 40°
2026-04-11 17:28 30.01152 -81.65579 178 ft 75 kts 60°
2026-04-11 17:28 30.01180 -81.65001 182 ft 76 kts 106°
2026-04-11 17:28 30.00796 -81.64541 185 ft 85 kts 147°
2026-04-11 17:28 30.00240 -81.64284 183 ft 88 kts 160°
2026-04-11 17:29 29.99644 -81.64086 186 ft 89 kts 165°
2026-04-11 17:29 29.99045 -81.64227 184 ft 91 kts 216°
2026-04-11 17:29 29.98729 -81.64831 182 ft 91 kts 266°
2026-04-11 17:29 29.98892 -81.65483 184 ft 84 kts 315°
2026-04-11 17:30 29.99349 -81.65793 182 ft 75 kts 353°
2026-04-11 17:30 29.99844 -81.65922 184 ft 71 kts 358°
2026-04-11 17:30 30.00343 -81.66032 183 ft 74 kts 359°
2026-04-11 17:30 30.00836 -81.66151 184 ft 69 kts
2026-04-11 17:31 30.01286 -81.66024 181 ft 69 kts 35°
2026-04-11 17:31 30.01548 -81.65589 182 ft 67 kts 74°
2026-04-11 17:31 30.01455 -81.65027 182 ft 78 kts 119°
2026-04-11 17:31 30.01019 -81.64637 189 ft 81 kts 149°
2026-04-11 17:32 30.00499 -81.64386 185 ft 82 kts 156°
2026-04-11 17:32 29.99956 -81.64156 182 ft 86 kts 154°
2026-04-11 17:32 29.99372 -81.64016 186 ft 89 kts 182°
2026-04-11 17:32 29.98857 -81.64366 183 ft 85 kts 238°
2026-04-11 17:33 29.98748 -81.65019 185 ft 84 kts 287°
2026-04-11 17:33 29.99070 -81.65517 184 ft 76 kts 337°
2026-04-11 17:33 29.99544 -81.65724 185 ft 73 kts 353°
2026-04-11 17:33 30.00036 -81.65877 184 ft 73 kts 354°
2026-04-11 17:34 30.00528 -81.66031 183 ft 73 kts 356°
2026-04-11 17:34 30.01022 -81.66121 181 ft 71 kts 13°
2026-04-11 17:34 30.01431 -81.65869 182 ft 68 kts 51°
2026-04-11 17:34 30.01568 -81.65347 179 ft 74 kts 92°
2026-04-11 17:35 30.01305 -81.64823 185 ft 81 kts 137°
2026-04-11 17:35 30.00799 -81.64511 187 ft 83 kts 149°
2026-04-11 17:35 30.00256 -81.64271 184 ft 85 kts 154°
2026-04-11 17:35 29.99708 -81.64041 195 ft 78 kts 158°
2026-04-11 17:36 29.99175 -81.64068 182 ft 81 kts 198°
2026-04-11 17:36 29.98784 -81.64522 184 ft 81 kts 255°
2026-04-11 17:36 29.98809 -81.65132 189 ft 74 kts 306°
2026-04-11 17:36 29.99157 -81.65505 185 ft 67 kts 345°
2026-04-11 17:37 29.99572 -81.65688 185 ft 62 kts 354°
2026-04-11 17:37 29.99985 -81.65826 181 ft 63 kts 352°
2026-04-11 17:37 30.00419 -81.65969 184 ft 66 kts 355°
2026-04-11 17:37 30.00847 -81.66107 181 ft 63 kts 358°
2026-04-11 17:38 30.01255 -81.65993 185 ft 59 kts 36°
2026-04-11 17:38 30.01459 -81.65597 183 ft 58 kts 76°
2026-04-11 17:38 30.01341 -81.65124 181 ft 69 kts 121°
2026-04-11 17:38 30.00933 -81.64802 189 ft 73 kts 145°
2026-04-11 17:39 30.00463 -81.64581 185 ft 74 kts 155°
2026-04-11 17:39 29.99977 -81.64370 183 ft 76 kts 152°
2026-04-11 17:39 29.99476 -81.64186 185 ft 77 kts 167°
2026-04-11 17:39 29.98966 -81.64378 185 ft 81 kts 223°
2026-04-11 17:40 29.98747 -81.64941 184 ft 77 kts 276°
2026-04-11 17:40 29.98949 -81.65458 185 ft 68 kts 327°
2026-04-11 17:40 29.99348 -81.65666 187 ft 61 kts 356°
2026-04-11 17:40 29.99772 -81.65787 183 ft 64 kts 356°
2026-04-11 17:41 30.00204 -81.65909 182 ft 64 kts 355°
2026-04-11 17:41 30.00646 -81.66016 183 ft 65 kts 359°
2026-04-11 17:41 30.01083 -81.66091 183 ft 61 kts
2026-04-11 17:41 30.01504 -81.66148 205 ft 63 kts
2026-04-11 17:42 30.01932 -81.66210 216 ft 64 kts 354°
2026-04-11 17:42 30.02275 -81.66588 225 ft 72 kts 308°
2026-04-11 17:42 30.02475 -81.67110 230 ft 70 kts 303°
2026-04-11 17:43 30.02922 -81.68301 237 ft 89 kts 302°
2026-04-11 17:43 30.03253 -81.68843 243 ft 74 kts 339°
2026-04-11 17:43 30.03714 -81.68933 239 ft 68 kts 15°
2026-04-11 17:43 30.04166 -81.68784 239 ft 66 kts 21°
2026-04-11 17:44 30.04610 -81.68641 239 ft 65 kts 19°
2026-04-11 17:44 30.05043 -81.68514 236 ft 65 kts 17°
2026-04-11 17:44 30.05502 -81.68392 240 ft 67 kts 17°
2026-04-11 17:44 30.05960 -81.68276 228 ft 73 kts 17°
2026-04-11 17:45 30.06572 -81.68130 222 ft 104 kts 17°
2026-04-11 17:45 30.07261 -81.67971 245 ft 96 kts 17°
2026-04-11 17:45 30.07912 -81.67811 241 ft 96 kts 17°
2026-04-11 17:45 30.08616 -81.67640 234 ft 111 kts 15°
2026-04-11 17:46 30.09355 -81.67459 239 ft 107 kts 15°
2026-04-11 17:46 30.10061 -81.67285 237 ft 100 kts 18°
2026-04-11 17:46 30.10683 -81.66986 238 ft 97 kts 41°
2026-04-11 17:46 30.11167 -81.66446 239 ft 98 kts 49°
2026-04-11 17:47 30.11620 -81.65832 238 ft 100 kts 49°
2026-04-11 17:47 30.12201 -81.65396 233 ft 105 kts 19°
2026-04-11 17:47 30.12914 -81.65483 238 ft 106 kts 342°
2026-04-11 17:47 30.13459 -81.66099 238 ft 115 kts 308°
2026-04-11 17:48 30.13244 -81.67742 249 ft 108 kts 227°
2026-04-11 17:48 30.12613 -81.68098 244 ft 100 kts 187°
2026-04-11 17:48 30.11970 -81.67987 243 ft 88 kts 158°
2026-04-11 17:49 30.10793 -81.67500 240 ft 90 kts 159°
2026-04-11 17:49 30.09940 -81.66635 241 ft 79 kts 97°
2026-04-11 17:50 30.09930 -81.66049 239 ft 71 kts 73°
2026-04-11 17:50 30.10194 -81.65573 240 ft 71 kts 42°
2026-04-11 17:50 30.10646 -81.65356 235 ft 75 kts 12°
2026-04-11 17:50 30.11179 -81.65419 238 ft 76 kts 356°
2026-04-11 17:51 30.11516 -81.65490 245 ft 72 kts 360°
2026-04-11 17:51 30.12518 -81.65722 237 ft 76 kts 354°
2026-04-11 17:51 30.12958 -81.66077 236 ft 82 kts 316°
2026-04-11 17:52 30.13126 -81.66720 240 ft 88 kts 276°
2026-04-11 17:52 30.12890 -81.67396 240 ft 94 kts 232°
2026-04-11 17:52 30.12316 -81.67765 236 ft 99 kts 191°
2026-04-11 17:52 30.11669 -81.67705 246 ft 88 kts 163°
2026-04-11 17:53 30.11072 -81.67501 238 ft 92 kts 161°
2026-04-11 17:53 30.10467 -81.67300 243 ft 88 kts 152°
2026-04-11 17:53 30.10026 -81.66853 238 ft 84 kts 113°
2026-04-11 17:53 30.09884 -81.66241 242 ft 75 kts 82°
2026-04-11 17:54 30.10050 -81.65696 237 ft 72 kts 55°
2026-04-11 17:54 30.10458 -81.65359 242 ft 73 kts 23°
2026-04-11 17:54 30.10974 -81.65348 238 ft 76 kts 358°
2026-04-11 17:54 30.11481 -81.65468 244 ft 71 kts 358°
2026-04-11 17:55 30.11965 -81.65597 239 ft 73 kts 358°
2026-04-11 17:55 30.12479 -81.65742 236 ft 78 kts 353°
2026-04-11 17:55 30.12930 -81.66091 238 ft 82 kts 317°
2026-04-11 17:55 30.13107 -81.66728 237 ft 88 kts 276°
2026-04-11 17:56 30.12885 -81.67391 237 ft 94 kts 233°
2026-04-11 17:56 30.12313 -81.67768 241 ft 98 kts 191°
2026-04-11 17:56 30.11653 -81.67733 247 ft 91 kts 167°
2026-04-11 17:56 30.11040 -81.67566 237 ft 93 kts 162°
2026-04-11 17:57 30.10440 -81.67351 243 ft 87 kts 147°
2026-04-11 17:57 30.10017 -81.66886 239 ft 83 kts 115°
2026-04-11 17:57 30.09873 -81.66273 241 ft 77 kts 86°
2026-04-11 17:57 30.10035 -81.65703 241 ft 70 kts 54°
2026-04-11 17:58 30.10411 -81.65362 238 ft 72 kts 27°
2026-04-11 17:58 30.10917 -81.65320 238 ft 74 kts 358°
2026-04-11 17:58 30.11413 -81.65451 240 ft 73 kts 354°
2026-04-11 17:58 30.11899 -81.65598 240 ft 72 kts 354°
2026-04-11 17:59 30.12413 -81.65760 239 ft 78 kts 353°
2026-04-11 17:59 30.12889 -81.66076 237 ft 82 kts 322°
2026-04-11 17:59 30.13107 -81.66702 237 ft 90 kts 284°
2026-04-11 17:59 30.12928 -81.67407 237 ft 99 kts 239°
2026-04-11 18:00 30.12359 -81.67864 242 ft 102 kts 196°
2026-04-11 18:00 30.11689 -81.67858 248 ft 90 kts 166°
2026-04-11 18:00 30.11088 -81.67658 239 ft 92 kts 159°
2026-04-11 18:00 30.10495 -81.67427 243 ft 87 kts 150°
2026-04-11 18:01 30.10059 -81.66978 239 ft 82 kts 114°
2026-04-11 18:01 30.09880 -81.66390 239 ft 76 kts 90°
2026-04-11 18:01 30.09989 -81.65809 239 ft 71 kts 65°
2026-04-11 18:01 30.10317 -81.65428 235 ft 69 kts 39°
2026-04-11 18:02 30.10831 -81.65303 231 ft 82 kts
2026-04-11 18:02 30.11399 -81.65391 232 ft 85 kts 359°
2026-04-11 18:02 30.11973 -81.65504 234 ft 83 kts 359°
2026-04-11 18:02 30.12532 -81.65629 229 ft 83 kts 357°
2026-04-11 18:03 30.13021 -81.66028 228 ft 93 kts 317°
2026-04-11 18:03 30.13211 -81.66750 228 ft 99 kts 274°
2026-04-11 18:03 30.12959 -81.67480 235 ft 97 kts 228°
2026-04-11 18:03 30.12416 -81.67841 228 ft 87 kts 183°
2026-04-11 18:04 30.11846 -81.67797 227 ft 82 kts 157°
2026-04-11 18:04 30.11286 -81.67609 234 ft 84 kts 156°
2026-04-11 18:04 30.10720 -81.67440 237 ft 82 kts 159°
2026-04-11 18:04 30.10247 -81.67164 226 ft 76 kts 132°
2026-04-11 18:05 30.09979 -81.66652 233 ft 72 kts 101°
2026-04-11 18:05 30.09992 -81.66100 232 ft 68 kts 74°
2026-04-11 18:05 30.10278 -81.65658 230 ft 72 kts 42°
2026-04-11 18:05 30.10777 -81.65487 228 ft 81 kts 10°
2026-04-11 18:06 30.11350 -81.65512 234 ft 84 kts
2026-04-11 18:06 30.11922 -81.65570 231 ft 82 kts
2026-04-11 18:06 30.12479 -81.65645 232 ft 82 kts
2026-04-11 18:06 30.12982 -81.66001 230 ft 91 kts 319°
2026-04-11 18:07 30.13209 -81.66699 230 ft 97 kts 278°
2026-04-11 18:07 30.12998 -81.67440 236 ft 96 kts 232°
2026-04-11 18:07 30.12474 -81.67840 231 ft 89 kts 191°
2026-04-11 18:07 30.11899 -81.67830 229 ft 82 kts 169°
2026-04-11 18:08 30.11304 -81.68078 214 ft 111 kts 216°
2026-04-11 18:08 30.10850 -81.68950 212 ft 143 kts 252°
2026-04-11 18:08 30.10825 -81.70162 221 ft 159 kts 284°
2026-04-11 18:08 30.11099 -81.71421 222 ft 168 kts 291°
2026-04-11 18:09 30.11443 -81.72738 221 ft 174 kts 291°
2026-04-11 18:09 30.11815 -81.74076 316 ft 173 kts 292°
2026-04-11 18:09 30.12278 -81.75346 332 ft 174 kts 303°
2026-04-11 18:09 30.12932 -81.76499 358 ft 171 kts 309°
2026-04-11 18:10 30.13618 -81.77657 358 ft 177 kts 311°
2026-04-11 18:10 30.14279 -81.78840 404 ft 174 kts 308°
2026-04-11 18:10 30.14939 -81.80026 440 ft 176 kts 311°
2026-04-11 18:10 30.15570 -81.81217 436 ft 174 kts 310°
2026-04-11 18:11 30.16177 -81.82442 452 ft 176 kts 309°
2026-04-11 18:11 30.16781 -81.83674 454 ft 175 kts 309°
2026-04-11 18:11 30.17382 -81.84898 457 ft 176 kts 309°
2026-04-11 18:11 30.17982 -81.86134 457 ft 176 kts 309°
2026-04-11 18:12 30.18682 -81.87145 482 ft 142 kts 336°
2026-04-11 18:12 30.19470 -81.87657 930 ft 126 kts 334°
2026-04-11 18:12 30.20201 -81.88063 830 ft 123 kts 349°
2026-04-11 18:12 30.21035 -81.88329 550 ft 124 kts 354°
2026-04-11 18:13 30.21778 -81.88679 403 ft 94 kts 326°
2026-04-11 18:13 30.21957 -81.88928 450 ft 3 kts 352°
2026-04-11 18:13 30.21950 -81.88903 361 ft 6 kts 352°
2026-04-11 18:13 30.22022 -81.88892 283 ft 7 kts
2026-04-11 18:14 30.22038 -81.88930 197 ft 3 kts 358°
2026-04-11 18:14 30.22042 -81.88945 111 ft 1 kts
2026-04-11 18:14 30.22046 -81.88938 90 ft 1 kts 360°
2026-04-11 18:14 30.22048 -81.88921 84 ft 2 kts 360°